Tiempo atmosférico en la estación meteorológica de Aller, Asturias (750 m.)



Fecha
DESCASC
Temp. máxima en grados centígrados (hora)
DESCASC
Temp. mínima en grados centígrados (hora)
DESCASC
Temp. media en grados centígrados
DESCASC
Racha de viento máxima en m/sg (hora)
DESCASC
Velocidad máxima media en intervalos de 10 minutos(hora)
DESCASC
Precipitaciones diarias en mm
DESCASC
Precipitaciones de 00:00 a 06:00 en mm
DESCASC
Precipitaciones de 06:00 a 12:00 en mm
DESCASC
Precipitaciones de 12:00 a 18:00 en mm
DESCASC
Precipitaciones de 18:00 a 24:00 en mm
DESCASC
06-12-2018 11 (13:20) 1.7 (23:50) 6.4 4.17 (01:10) 2.78 (13:50) 0 0 0 0 0
05-12-2018 15.2 (13:30) 5.2 (07:10) 10.2 5.83 (12:20) 2.5 (14:30) 0 0 0 0 0
04-12-2018 16.9 (15:30) 7.2 (07:20) 12 8.61 (13:50) 3.61 (14:10) 0 0 0 0 0
03-12-2018 14.7 (09:50) 10.2 (00:00) 12.4 7.22 (01:00) 3.33 (00:10) 10 0 3.6 5.6 0.8
02-12-2018 15.6 (13:10) 11.3 (00:00) 13.5 11.39 (08:20) 5 (05:00) 0.2 0.2 0 0 0
01-12-2018 13.7 (14:10) 4.3 (00:00) 9 9.17 (21:20) 4.44 (15:50) 0 0 0 0 0
30-11-2018 10.7 (13:20) 1.5 (00:00) 6.1 5 (13:30) 2.78 (13:30) 0 0 0 0 0
29-11-2018 14.7 (00:30) 4.7 (00:00) 9.7 13.06 (08:30) 5.28 (14:30) 0.2 0 0 0.2 0
28-11-2018 17.5 (12:40) 7.7 (00:00) 12.6 13.89 (23:30) 5.28 (19:30) 0 0 0 0 0
27-11-2018 13 (13:30) 1.4 (00:00) 7.2 9.44 (23:40) 3.89 (19:30) 0 0 0 0 0
26-11-2018 6.1 (16:30) 2.7 (05:00) 4.4 6.11 (10:40) 3.33 (10:50) 11.8 5.8 4.2 1.6 0.2
25-11-2018 8.7 (14:30) 1.6 (00:00) 5.1 6.67 (20:40) 2.5 (11:30) 4.2 2.8 0 0 1.4
24-11-2018 10.6 (12:40) 4.4 (00:00) 7.5 9.44 (15:10) 3.61 (15:30) 4 0 0 0 4
23-11-2018 10 (13:00) 3.6 (00:00) 6.8 7.78 (12:20) 2.78 (12:20) 0 0 0 0 0
22-11-2018 10 (16:20) 4.9 (00:00) 7.5 8.61 (04:10) 3.06 (14:30) 1.2 0 0 0.6 0.6
21-11-2018 10.6 (13:00) 1.1 (00:00) 5.9 6.94 (14:20) 2.78 (13:10) 1 0 0 0.4 0.6
20-11-2018 8 (00:00) 3.1 (00:00) 5.5 4.72 (08:30) 2.22 (12:40) 4.6 1.6 2.6 0.4 0
19-11-2018 13.7 (13:00) 5.2 (00:00) 9.4 8.89 (04:00) 3.61 (03:50) 0.8 0.8 0 0 0
18-11-2018 12.7 (11:40) 5.1 (00:00) 8.9 5 (12:00) 2.5 (12:30) 4.8 0 0 2.4 2.4
17-11-2018 15.8 (15:20) 7.1 (00:00) 11.5 8.06 (11:10) 2.5 (11:10) 0 0 0 0 0
16-11-2018 17.8 (13:30) 6.9 (00:00) 12.3 8.89 (11:20) 3.33 (11:10) 0 0 0 0 0
15-11-2018 19 (13:30) 6.9 (00:00) 13 9.44 (11:00) 3.89 (11:20) 0 0 0 0 0
14-11-2018 19.9 (12:40) 6.4 (00:00) 13.1 7.5 (05:00) 3.33 (06:00) 0 0 0 0 0
13-11-2018 13.3 (13:30) 1 (00:00) 7.2 4.17 (22:40) 2.22 (08:30) 0 0 0 0 0
12-11-2018 12.4 (13:30) 6.3 (00:00) 9.3 4.44 (14:50) 2.22 (14:50) 1 1 0 0 0
11-11-2018 15.4 (11:30) 7.3 (00:00) 11.3 10.83 (04:40) 3.61 (04:40) 14.4 0 0.2 7.8 6.4
10-11-2018 15.8 (10:50) 8.4 (00:00) 12.1 12.5 (08:10) 3.33 (10:40) 1.2 0.8 0.2 0.2 0
09-11-2018 14.4 (23:30) 1.2 (00:00) 7.8 11.94 (15:50) 4.17 (15:50) 0.8 0.2 0 0.6 0

Gráficas

Temp. máximas Temp. mínimas Temp. medias Precipitaciones Rachas de viento máximas Velocidades máximas media en intervalos de 10 minutos

Datos horarios

Fecha y hora oficial Temperatura (ºC) Velocidad del viento (km/h) Dirección del viento Racha (km/h) Dirección de racha Precipitación (mm) Presión (hPa) Tendencia (hPa) Humedad (%)
2018-12-08 23:00:00 9.7 5 Sudeste 9 Sudeste 0 -- -- 79
2018-12-08 22:00:00 9.1 4 Sudeste 10 Sudeste 0 -- -- 80
2018-12-08 21:00:00 9.3 6 Sudeste 12 Sudeste 0 -- -- 75
2018-12-08 20:00:00 8.5 8 Sudeste 14 Sudeste 0 -- -- 75
2018-12-08 19:00:00 7.6 8 Sudeste 14 Sudeste 0 -- -- 76
2018-12-08 18:00:00 8 8 Sudeste 13 Sudeste 0 -- -- 79
2018-12-08 17:00:00 9.8 7 Sudeste 12 Sudeste 0 -- -- 73
2018-12-08 16:00:00 11 7 Sudeste 13 Sudeste 0 -- -- 72
2018-12-08 15:00:00 11.4 8 Sudeste 13 Sudeste 0 -- -- 65
2018-12-08 14:00:00 11.7 7 Sudeste 13 Sudeste 0 -- -- 60
2018-12-08 13:00:00 11.6 8 Sudeste 14 Sudeste 0 -- -- 56
2018-12-08 12:00:00 9 5 Noroeste 13 Sudeste 0 -- -- 57
2018-12-08 11:00:00 4.8 6 Sudeste 12 Sudeste 0 -- -- 75
2018-12-08 10:00:00 2.5 2 Norte 12 Sudeste 0 -- -- 84
2018-12-08 09:00:00 1.5 7 Sudeste 12 Sudeste 0 -- -- 87
2018-12-08 08:00:00 1.7 2 Sudeste 8 Sudeste 0 -- -- 91
2018-12-08 07:00:00 2.5 4 Sudeste 10 Sudeste 0 -- -- 91
2018-12-08 06:00:00 3.8 5 Sudeste 10 Sudeste 0 -- -- 91
2018-12-08 05:00:00 3.8 6 Sudeste 9 Sudeste 0 -- -- 94
2018-12-08 04:00:00 3.6 5 Sudeste 8 Sur 0 -- -- 95
2018-12-08 03:00:00 4.9 4 Sudeste 6 Sudeste 0 -- -- 94
2018-12-08 02:00:00 5.7 3 Sudeste 5 Sudeste 0 -- -- 94
2018-12-08 01:00:00 6.6 0 Calma 3 Sudeste 0 -- -- 93
2018-12-08 00:00:00 7.2 0 Calma 5 Norte 0 -- -- 90
2018-12-07 23:00:00 7.6 2 Norte 11 Norte 0 -- -- 90
2018-12-07 22:00:00 7.8 6 Norte 11 Noroeste 0 -- -- 92
2018-12-07 21:00:00 8 5 Norte 10 Noroeste 0 -- -- 92
2018-12-07 20:00:00 8.6 4 Norte 15 Norte 0 -- -- 92
2018-12-07 19:00:00 9.4 7 Norte 17 Norte 0 -- -- 90
2018-12-07 18:00:00 10.3 9 Norte 19 Norte 0 -- -- 86
2018-12-07 17:00:00 12.6 10 Norte 25 Noroeste 0 -- -- 75
2018-12-07 16:00:00 14.1 10 Norte 24 Noroeste 0 -- -- 67
2018-12-07 15:00:00 14.8 10 Norte 16 Norte 0 -- -- 62
2018-12-07 14:00:00 14.2 4 Norte 18 Noroeste 0 -- -- 53
2018-12-07 13:00:00 13.8 2 Sudeste 12 Sudeste 0 -- -- 61
2018-12-07 12:00:00 11.6 5 Sudeste 13 Sudeste 0 -- -- 63
2018-12-07 11:00:00 7.8 5 Sudeste 11 Sudeste 0 -- -- 68
2018-12-07 10:00:00 4.7 4 Sudeste 13 Sudeste 0 -- -- 74
2018-12-07 09:00:00 4.6 6 Sudeste 15 Sudeste 0 -- -- 65
2018-12-07 08:00:00 3.1 8 Sudeste 15 Sudeste 0 -- -- 71
2018-12-07 07:00:00 3 4 Sudeste 12 Sudeste 0 -- -- 74
2018-12-07 06:00:00 2.8 4 Sudeste 13 Sudeste 0 -- -- 75
2018-12-07 05:00:00 3.2 6 Sudeste 15 Sudeste 0 -- -- 66
2018-12-07 04:00:00 2.1 2 Sudeste 14 Sudeste 0 -- -- 77
2018-12-07 03:00:00 1.5 6 Sudeste 14 Sudeste 0 -- -- 75
2018-12-07 02:00:00 1.5 7 Sudeste 12 Sudeste 0 -- -- 73
2018-12-07 01:00:00 1.5 2 Sudeste 13 Sudeste 0 -- -- 81
2018-12-07 00:00:00 1.7 5 Sudeste 12 Sudeste 0 -- -- 81
2018-12-06 23:00:00 1.9 6 Sudeste 11 Sudeste 0 -- -- 87
2018-12-06 22:00:00 3.1 9 Sudeste 13 Sudeste 0 -- -- 85
2018-12-06 21:00:00 3.6 6 Sudeste 14 Sudeste 0 -- -- 89
2018-12-06 20:00:00 4.6 6 Sudeste 12 Este 0 -- -- 88
2018-12-06 19:00:00 5.3 6 Sudeste 12 Sudeste 0 -- -- 86
2018-12-06 18:00:00 5.9 7 Sudeste 13 Sudeste 0 -- -- 84
2018-12-06 17:00:00 6.5 8 Sudeste 13 Sudeste 0 -- -- 81
2018-12-06 16:00:00 6.9 8 Sudeste 13 Sudeste 0 -- -- 78
2018-12-06 15:00:00 7.5 8 Sudeste 12 Sudeste 0 -- -- 72
2018-12-06 14:00:00 8.5 9 Sudeste 14 Sudeste 0 -- -- 65
2018-12-06 13:00:00 10.8 5 Sudeste 14 Sudeste 0 -- -- 59
2018-12-06 12:00:00 9.4 8 Sudeste 12 Sudeste 0 -- -- 58
2018-12-06 11:00:00 5.9 8 Sudeste 15 Sudeste 0 -- -- 75
2018-12-06 10:00:00 3.2 4 Sudeste 11 Sudeste 0 -- -- 85
2018-12-06 09:00:00 3 6 Sudeste 9 Sudeste 0 -- -- 88
2018-12-06 08:00:00 4.1 4 Sudeste 13 Sudeste 0 -- -- 85
2018-12-06 07:00:00 4.5 8 Sudeste 12 Sudeste 0 -- -- 87
2018-12-06 06:00:00 4.2 3 Sudeste 10 Sudeste 0 -- -- 93
2018-12-06 05:00:00 4.5 3 Sudeste 9 Sudeste 0 -- -- 91
2018-12-06 04:00:00 6.1 4 Sudeste 12 Sur 0 -- -- 87
2018-12-06 03:00:00 6.9 3 Sudeste 10 Sudeste 0 -- -- 86
2018-12-06 02:00:00 8.4 5 Sudeste 15 Este 0 -- -- 82
2018-12-06 01:00:00 9 5 Sudeste 12 Este 0 -- -- 81
2018-12-06 00:00:00 8.2 8 Sudeste 12 Sudeste 0 -- -- 84
2018-12-05 23:00:00 9.9 5 Este 18 Este 0 -- -- 78
2018-12-05 22:00:00 9.8 6 Este 12 Este 0 -- -- 79
2018-12-05 21:00:00 10 8 Sudeste 16 Este 0 -- -- 77
2018-12-05 20:00:00 10 7 Este 14 Este 0 -- -- 77
2018-12-05 19:00:00 10 7 Sudeste 14 Sudeste 0 -- -- 75
2018-12-05 18:00:00 9.9 8 Sudeste 13 Sudeste 0 -- -- 72
2018-12-05 17:00:00 10.8 6 Sudeste 14 Sudeste 0 -- -- 70
2018-12-05 16:00:00 13.5 9 Norte 19 Noroeste 0 -- -- 59
2018-12-05 15:00:00 12 6 Sudeste 15 Sudeste 0 -- -- 61
2018-12-05 14:00:00 14.3 2 Noroeste 12 Este 0 -- -- 59
2018-12-05 13:00:00 12.2 3 Sudeste 21 Noroeste 0 -- -- 67
2018-12-05 12:00:00 13.1 5 Oeste 15 Noroeste 0 -- -- 66
2018-12-05 11:00:00 8.9 3 Norte 12 Noroeste 0 -- -- 82
2018-12-05 10:00:00 7.1 5 Oeste 10 Noroeste 0 -- -- 78
2018-12-05 09:00:00 6.2 4 Sudeste 11 Sudeste 0 -- -- 77
2018-12-05 08:00:00 5.6 3 Sur 9 Sudeste 0 -- -- 81
2018-12-05 07:00:00 5.3 0 Calma 9 Este 0 -- -- 84
2018-12-05 06:00:00 5.9 2 Norte 7 Noroeste 0 -- -- 78
2018-12-05 05:00:00 6.9 3 Noroeste 11 Noroeste 0 -- -- 72
2018-12-05 04:00:00 7.6 4 Norte 13 Nordeste 0 -- -- 71
2018-12-05 03:00:00 10.5 7 Este 16 Sudeste 0 -- -- 59
2018-12-05 02:00:00 10.1 6 Este 15 Este 0 -- -- 61
2018-12-05 01:00:00 8.1 4 Noroeste 9 Sudeste 0 -- -- 74
2018-12-05 00:00:00 10.9 6 Sudeste 18 Este 0 -- -- 62
2018-12-04 23:00:00 11.9 8 Este 17 Este 0 -- -- 58
2018-12-04 22:00:00 10.5 0 Calma 22 Sudeste 0 -- -- 70
2018-12-04 21:00:00 12.7 9 Este 19 Este 0 -- -- 61
2018-12-04 20:00:00 12.4 9 Este 22 Sudeste 0 -- -- 64
2018-12-04 19:00:00 12.5 9 Este 17 Este 0 -- -- 64
2018-12-04 18:00:00 11.2 6 Sudeste 11 Sudeste 0 -- -- 77
2018-12-04 17:00:00 12.7 3 Sudeste 8 Sudeste 0 -- -- 75
2018-12-04 16:00:00 15.6 0 Calma 27 Sudeste 0 -- -- 67
2018-12-04 15:00:00 16.5 6 Sudeste 29 Sudeste 0 -- -- 60
2018-12-04 14:00:00 16.3 12 Sur 31 Sur 0 -- -- 59
2018-12-04 13:00:00 15 2 Oeste 5 Norte 0 -- -- 71
2018-12-04 12:00:00 13.2 2 Norte 10 Sudeste 0 -- -- 83
2018-12-04 11:00:00 10 3 Norte 10 Sudeste 0 -- -- 92
2018-12-04 10:00:00 8 2 Sudeste 12 Sudeste 0 -- -- 95
2018-12-04 09:00:00 7.4 6 Sudeste 11 Sudeste 0 -- -- 95
2018-12-04 08:00:00 7.4 6 Sudeste 11 Sudeste 0 -- -- 95
2018-12-04 07:00:00 7.5 2 Sudeste 9 Sudeste 0 -- -- 95
2018-12-04 06:00:00 7.8 2 Sudeste 9 Sudeste 0 -- -- 94
2018-12-04 05:00:00 8.2 8 Sudeste 10 Sur 0 -- -- 95
2018-12-04 04:00:00 9.4 0 Calma 9 Sudeste 0 -- -- 90
2018-12-04 03:00:00 10.4 6 Este 12 Este 0 -- -- 86
2018-12-04 02:00:00 11 5 Este 16 Este 0 -- -- 83
2018-12-04 01:00:00 11.2 6 Este 17 Sudeste 0 -- -- 83
2018-12-04 00:00:00 11.2 6 Este 15 Sudeste 0 -- -- 84
2018-12-03 23:00:00 11.4 6 Este 16 Sudeste 0 -- -- 85
2018-12-03 22:00:00 11.8 6 Este 20 Sudeste 0 -- -- 86
2018-12-03 21:00:00 12.1 5 Este 14 Este 0 -- -- 89
2018-12-03 20:00:00 11.8 6 Este 12 Este 0.2 -- -- 92
2018-12-03 19:00:00 11.7 6 Este 11 Este 0.6 -- -- 94
2018-12-03 18:00:00 11.9 0 Calma 12 Este 0.2 -- -- 94
2018-12-03 17:00:00 12 5 Sudeste 12 Sudeste 2 -- -- 95
2018-12-03 16:00:00 12.2 5 Sudeste 13 Sudeste 0.8 -- -- 92
2018-12-03 15:00:00 12.5 6 Este 13 Sudeste 1 -- -- 91
2018-12-03 14:00:00 12.5 6 Sudeste 13 Sudeste 0.4 -- -- 89
2018-12-03 13:00:00 12 5 Sudeste 14 Sudeste 1.2 -- -- 90
2018-12-03 12:00:00 12.2 3 Sudeste 12 Este 0.6 -- -- 91
2018-12-03 11:00:00 12.2 4 Sudeste 9 Sudeste 2.6 -- -- 91
2018-12-03 10:00:00 14.3 5 Este 22 Sudeste 0.4 -- -- 79
2018-12-03 09:00:00 12.2 4 Nordeste 10 Nordeste 0 -- -- 75
2018-12-03 08:00:00 11.2 6 Sudeste 13 Sudeste 0 -- -- 76
2018-12-03 07:00:00 10.2 3 Este 8 Sudeste 0 -- -- 79
2018-12-03 06:00:00 11.5 4 Sudeste 10 Sudeste 0 -- -- 74
2018-12-03 05:00:00 13.1 4 Sur 11 Noroeste 0 -- -- 68
2018-12-03 04:00:00 13.2 4 Este 23 Sur 0 -- -- 67
2018-12-03 03:00:00 13.3 11 Sudeste 25 Sudeste 0 -- -- 65
2018-12-03 02:00:00 12.7 10 Sudeste 25 Sudeste 0 -- -- 66
2018-12-03 01:00:00 12.5 10 Sudeste 26 Sur 0 -- -- 67
2018-12-03 00:00:00 12.3 12 Sudeste 28 Sudeste 0 -- -- 67
2018-12-02 23:00:00 12.4 13 Sudeste 29 Sur 0 -- -- 66
2018-12-02 22:00:00 12.8 12 Sudeste 35 Sudeste 0 -- -- 63
2018-12-02 21:00:00 12.7 13 Sudeste 36 Sudeste 0 -- -- 61
2018-12-02 20:00:00 12.9 13 Sudeste 35 Sudeste 0 -- -- 58
2018-12-02 19:00:00 12.8 13 Sudeste 31 Sur 0 -- -- 58
2018-12-02 18:00:00 12.9 13 Sudeste 30 Sur 0 -- -- 57
2018-12-02 17:00:00 13.4 12 Sudeste 34 Sudeste 0 -- -- 55
2018-12-02 16:00:00 14.1 12 Sudeste 31 Sudeste 0 -- -- 53
2018-12-02 15:00:00 14.4 13 Sudeste 32 Sudeste 0 -- -- 51
2018-12-02 14:00:00 15.1 9 Sur 26 Sudeste 0 -- -- 46
2018-12-02 13:00:00 15.5 6 Sur 30 Sudeste 0 -- -- 43
2018-12-02 12:00:00 14.3 15 Sur 29 Sur 0 -- -- 48
2018-12-02 11:00:00 13.5 13 Sudeste 32 Sur 0 -- -- 50
2018-12-02 10:00:00 13.6 9 Sudeste 35 Sudeste 0 -- -- 52
2018-12-02 09:00:00 13.2 13 Sudeste 41 Sudeste 0 -- -- 57
2018-12-02 08:00:00 12 13 Sudeste 37 Sudeste 0 -- -- 65
2018-12-02 07:00:00 12.4 16 Sur 35 Sudeste 0 -- -- 64
2018-12-02 06:00:00 12.4 16 Sur 38 Sudeste 0 -- -- 62
2018-12-02 05:00:00 12.8 18 Sur 35 Sudeste 0 -- -- 62
2018-12-02 04:00:00 12.6 13 Sudeste 33 Sudeste 0 -- -- 65
2018-12-02 03:00:00 12.9 12 Sur 30 Sur 0 -- -- 65
2018-12-02 02:00:00 12.3 11 Sudeste 31 Sur 0 -- -- 68
2018-12-02 01:00:00 11.3 10 Este 26 Sur 0.2 -- -- 74
2018-12-02 00:00:00 12.6 11 Sudeste 27 Sudeste 0 -- -- 60
2018-12-01 23:00:00 11.9 8 Sudeste 30 Sudeste 0 -- -- 62
2018-12-01 22:00:00 12.4 9 Sur 33 Sudeste 0 -- -- 62
2018-12-01 21:00:00 12.5 13 Sudeste 28 Sur 0 -- -- 64
2018-12-01 20:00:00 12.8 9 Sudeste 28 Sudeste 0 -- -- 64
2018-12-01 19:00:00 12.3 13 Sudeste 25 Sudeste 0 -- -- 68
2018-12-01 18:00:00 12.5 12 Sudeste 26 Sur 0 -- -- 63
2018-12-01 17:00:00 12.8 12 Sudeste 31 Sur 0 -- -- 63
2018-12-01 16:00:00 12.8 13 Sudeste 31 Sudeste 0 -- -- 64
2018-12-01 15:00:00 12.8 12 Sur 30 Sudeste 0 -- -- 65
2018-12-01 14:00:00 13.5 12 Sur 27 Sur 0 -- -- 63
2018-12-01 13:00:00 13.2 7 Sur 24 Sudeste 0 -- -- 64
2018-12-01 12:00:00 11 9 Sudeste 26 Sudeste 0 -- -- 70
2018-12-01 11:00:00 10.2 10 Sudeste 27 Sur 0 -- -- 72
2018-12-01 10:00:00 9.9 7 Este 18 Este 0 -- -- 71
2018-12-01 09:00:00 9.4 8 Este 23 Sur 0 -- -- 68
2018-12-01 08:00:00 9.7 9 Sur 28 Sudeste 0 -- -- 66
2018-12-01 07:00:00 10.2 12 Sudeste 31 Sur 0 -- -- 63
2018-12-01 06:00:00 10 9 Sudeste 31 Sur 0 -- -- 63
2018-12-01 05:00:00 9.7 12 Sudeste 24 Sudeste 0 -- -- 62
2018-12-01 04:00:00 9.4 10 Sudeste 25 Sudeste 0 -- -- 57
2018-12-01 03:00:00 9.1 8 Sudeste 23 Sudeste 0 -- -- 56
2018-12-01 02:00:00 6.1 4 Sudeste 15 Este 0 -- -- 72
2018-12-01 01:00:00 5.2 2 Noroeste 10 Noroeste 0 -- -- 85
2018-12-01 00:00:00 4.3 2 Sudeste 5 Sur 0 -- -- 86
2018-11-30 23:00:00 3.7 4 Sudeste 6 Este 0 -- -- 88
2018-11-30 22:00:00 3.3 4 Sur 10 Sudeste 0 -- -- 86
2018-11-30 21:00:00 3.7 6 Sudeste 12 Sudeste 0 -- -- 82
2018-11-30 20:00:00 3.5 4 Sudeste 9 Sudeste 0 -- -- 84
2018-11-30 19:00:00 4.3 5 Sudeste 11 Sudeste 0 -- -- 79
2018-11-30 18:00:00 5.6 5 Sudeste 11 Sudeste 0 -- -- 74
2018-11-30 17:00:00 6.8 7 Sudeste 11 Sudeste 0 -- -- 71
2018-11-30 16:00:00 8.3 5 Sudeste 10 Norte 0 -- -- 70
2018-11-30 15:00:00 9.6 4 Norte 17 Noroeste 0 -- -- 60
2018-11-30 14:00:00 9.7 7 Noroeste 18 Noroeste 0 -- -- 59
2018-11-30 13:00:00 10.3 5 Noroeste 11 Noroeste 0 -- -- 56
2018-11-30 12:00:00 7.6 2 Noroeste 6 Noroeste 0 -- -- 71
2018-11-30 11:00:00 6.5 4 Sudeste 10 Sudeste 0 -- -- 71
2018-11-30 10:00:00 3 7 Sudeste 11 Sudeste 0 -- -- 84
2018-11-30 09:00:00 1.9 5 Sudeste 9 Sudeste 0 -- -- 85
2018-11-30 08:00:00 1.8 3 Sudeste 11 Sudeste 0 -- -- 84
2018-11-30 07:00:00 2 6 Sudeste 12 Sudeste 0 -- -- 82
2018-11-30 06:00:00 1.9 7 Sudeste 14 Sudeste 0 -- -- 84
2018-11-30 05:00:00 1.6 2 Sudeste 8 Sudeste 0 -- -- 86
2018-11-30 04:00:00 2.1 8 Sudeste 12 Sudeste 0 -- -- 84
2018-11-30 03:00:00 2.6 5 Sudeste 11 Sur 0 -- -- 83
2018-11-30 02:00:00 3.7 6 Sudeste 15 Este 0 -- -- 78
2018-11-30 01:00:00 3.7 6 Este 10 Este 0 -- -- 79
2018-11-30 00:00:00 4.7 4 Este 15 Sudeste 0 -- -- 77
2018-11-29 23:00:00 5.7 8 Este 17 Sudeste 0 -- -- 74
2018-11-29 22:00:00 5.8 8 Este 17 Sudeste 0 -- -- 75
2018-11-29 21:00:00 6.9 9 Este 17 Sudeste 0 -- -- 72
2018-11-29 20:00:00 8.1 8 Sudeste 23 Sudeste 0 -- -- 68
2018-11-29 19:00:00 7.6 5 Este 12 Sudeste 0 -- -- 73
2018-11-29 18:00:00 8.7 6 Este 9 Sudeste 0 -- -- 72
2018-11-29 17:00:00 10.1 0 Calma 15 Sur 0 -- -- 73
2018-11-29 16:00:00 10.1 5 Sudeste 28 Sudeste 0 -- -- 66
2018-11-29 15:00:00 9.1 7 Sudeste 44 Sudeste 0.2 -- -- 73
2018-11-29 14:00:00 11.2 12 Sudeste 29 Sudeste 0 -- -- 65
2018-11-29 13:00:00 10.7 11 Sudeste 35 Sudeste 0 -- -- 65
2018-11-29 12:00:00 10.7 12 Sudeste 31 Sudeste 0 -- -- 63
2018-11-29 11:00:00 10.2 12 Sudeste 33 Sudeste 0 -- -- 59
2018-11-29 10:00:00 10 11 Sudeste 39 Sur 0 -- -- 54
2018-11-29 09:00:00 10.9 11 Sudeste 47 Sur 0 -- -- 44
2018-11-29 08:00:00 10.1 12 Sudeste 32 Sur 0 -- -- 43
2018-11-29 07:00:00 11.3 14 Sur 34 Sur 0 -- -- 36
2018-11-29 06:00:00 11 6 Este 47 Sudeste 0 -- -- 38
2018-11-29 05:00:00 12.2 10 Sudeste 36 Sur 0 -- -- 33
2018-11-29 04:00:00 12.5 10 Sudeste 34 Sur 0 -- -- 34
2018-11-29 03:00:00 12.5 15 Sudeste 44 Sudeste 0 -- -- 37
2018-11-29 02:00:00 13.4 16 Sudeste 47 Sur 0 -- -- 35
2018-11-29 01:00:00 14.6 9 Sudeste 45 Sudeste 0 -- -- 30
2018-11-29 00:00:00 13.1 6 Este 50 Este 0 -- -- 37
2018-11-28 23:00:00 13 16 Sudeste 36 Sudeste 0 -- -- 39
2018-11-28 22:00:00 12.1 13 Sudeste 32 Sudeste 0 -- -- 44
2018-11-28 21:00:00 11.7 14 Sudeste 47 Sur 0 -- -- 43
2018-11-28 14:00:00 -- -- -- -- -- -- -- -- --
2018-11-28 13:00:00 17.1 11 Sudeste 25 Sudeste 0 -- -- 25
2018-11-28 12:00:00 16.4 9 Sudeste 24 Sur 0 -- -- 27
2018-11-28 11:00:00 12.6 3 Noroeste 14 Sudeste 0 -- -- 38
2018-11-28 10:00:00 9.5 6 Sudeste 19 Sudeste 0 -- -- 44
2018-11-28 09:00:00 10.6 9 Este 17 Este 0 -- -- 35
2018-11-28 08:00:00 10.4 8 Este 25 Sudeste 0 -- -- 38
2018-11-28 07:00:00 10.9 11 Sudeste 28 Sur 0 -- -- 37
2018-11-28 06:00:00 10.3 9 Sudeste 20 Sudeste 0 -- -- 36
2018-11-28 05:00:00 9.8 7 Este 14 Este 0 -- -- 40
2018-11-28 04:00:00 9.2 4 Sudeste 16 Este 0 -- -- 47
2018-11-28 03:00:00 11.6 8 Este 19 Sudoeste 0 -- -- 38
2018-11-28 02:00:00 12.3 8 Sudeste 39 Sur 0 -- -- 34
2018-11-28 01:00:00 12 9 Sudeste 28 Sudeste 0 -- -- 45
2018-11-28 00:00:00 11.6 11 Sudeste 34 Sudeste 0 -- -- 50
2018-11-27 23:00:00 11.2 10 Sudeste 24 Sudeste 0 -- -- 40
2018-11-27 22:00:00 10.7 9 Sudeste 25 Sur 0 -- -- 40
2018-11-27 21:00:00 10.9 7 Sudeste 27 Sudeste 0 -- -- 43
2018-11-27 20:00:00 11.5 13 Sudeste 33 Sudeste 0 -- -- 42
2018-11-27 19:00:00 10.7 9 Sudeste 23 Sudeste 0 -- -- 50
2018-11-27 18:00:00 10.6 10 Sur 25 Sudeste 0 -- -- 39
2018-11-27 17:00:00 10.6 3 Sudeste 10 Sudeste 0 -- -- 52
2018-11-27 16:00:00 12 2 Sudeste 12 Sudeste 0 -- -- 54
2018-11-27 15:00:00 12.7 3 Sur 17 Sudeste 0 -- -- 45
2018-11-27 14:00:00 12.9 3 Sudeste 12 Sur 0 -- -- 44
2018-11-27 13:00:00 12.7 6 Sudeste 18 Sur 0 -- -- 41
2018-11-27 12:00:00 11.3 5 Sudeste 13 Este 0 -- -- 48
2018-11-27 11:00:00 9.1 7 Este 17 Este 0 -- -- 60
2018-11-27 10:00:00 7.5 7 Este 16 Sudeste 0 -- -- 58
2018-11-27 09:00:00 5.2 3 Nordeste 16 Este 0 -- -- 77
2018-11-27 08:00:00 4 8 Este 14 Este 0 -- -- 74
2018-11-27 07:00:00 1.7 3 Sudeste 8 Sudeste 0 -- -- 95
2018-11-27 06:00:00 1.8 0 Calma 9 Sudeste 0 -- -- 94
2018-11-27 05:00:00 2.4 0 Calma 9 Sudeste 0 -- -- 91
2018-11-27 04:00:00 3 0 Calma 11 Sudeste 0 -- -- 87
2018-11-27 03:00:00 2.5 4 Sudeste 11 Este 0 -- -- 92
2018-11-27 02:00:00 2.2 6 Sudeste 9 Sudeste 0 -- -- 92
2018-11-27 01:00:00 2.4 4 Sudeste 9 Sudeste 0 -- -- 93
2018-11-27 00:00:00 2.8 6 Sudeste 13 Sudeste 0 -- -- 93
2018-11-26 23:00:00 3.4 4 Sudeste 9 Sudeste 0.2 -- -- 94
2018-11-26 22:00:00 4.6 5 Sudeste 8 Sur 0 -- -- 96
2018-11-26 21:00:00 5.1 3 Sudeste 9 Sudeste 0 -- -- 96
2018-11-26 20:00:00 5.2 3 Sudeste 10 Sudeste 0 -- -- 96
2018-11-26 19:00:00 5.4 0 Calma 5 Sudeste 0 -- -- 97
2018-11-26 18:00:00 5.8 0 Calma 4 Sudeste 0 -- -- 96
2018-11-26 17:00:00 6.1 2 Sudeste 4 Sudeste 0 -- -- 96
2018-11-26 16:00:00 5.9 0 Calma 9 Nordeste 0 -- -- 96
2018-11-26 15:00:00 5.5 6 Norte 17 Noroeste 0.2 -- -- 96
2018-11-26 14:00:00 5.4 7 Norte 14 Noroeste 1.2 -- -- 95
2018-11-26 13:00:00 5.2 6 Norte 17 Norte 0.2 -- -- 95
2018-11-26 12:00:00 4.8 6 Norte 15 Noroeste 0 -- -- 96
2018-11-26 11:00:00 4.5 9 Norte 22 Norte 0.6 -- -- 99
2018-11-26 10:00:00 4.3 10 Norte 21 Norte 1 -- -- 99
2018-11-26 09:00:00 3.9 10 Norte 18 Noroeste 1 -- -- 99
2018-11-26 08:00:00 3.3 2 Noroeste 9 Noroeste 1.6 -- -- 99
2018-11-26 07:00:00 3.1 0 Calma 6 Sudeste 0 -- -- 97
2018-11-26 06:00:00 2.8 0 Calma 6 Sur 0.2 -- -- 96
2018-11-26 05:00:00 2.7 2 Sudeste 6 Sudeste 0.2 -- -- 94
2018-11-26 04:00:00 3 0 Calma 14 Noroeste 1 -- -- 93
2018-11-26 03:00:00 3.5 4 Norte 10 Norte 2 -- -- 94
2018-11-26 02:00:00 4 6 Norte 18 Norte 2.2 -- -- 96
2018-11-26 01:00:00 4.5 6 Norte 12 Norte 0.2 -- -- 95
2018-11-26 00:00:00 4.7 3 Noroeste 14 Norte 1.2 -- -- 94
2018-11-25 23:00:00 5.2 4 Oeste 12 Oeste 0.2 -- -- 88
2018-11-25 22:00:00 6.2 5 Este 12 Sudeste 0 -- -- 79
2018-11-25 21:00:00 6.4 4 Este 24 Sudeste 0 -- -- 73
2018-11-25 20:00:00 5.3 2 Norte 8 Sudeste 0 -- -- 84
2018-11-25 19:00:00 5.5 2 Sudeste 8 Sur 0 -- -- 86
2018-11-25 18:00:00 6.4 0 Calma 3 Sur 0 -- -- 79
2018-11-25 17:00:00 7.5 0 Calma 5 Sur 0 -- -- 77
2018-11-25 16:00:00 7.6 3 Sur 9 Sudeste 0 -- -- 65
2018-11-25 15:00:00 8 0 Calma 7 Sudeste 0 -- -- 61
2018-11-25 14:00:00 7.8 2 Sudeste 12 Sudeste 0 -- -- 58
2018-11-25 13:00:00 7.1 7 Sudeste 12 Sur 0 -- -- 63
2018-11-25 12:00:00 6 7 Sudeste 15 Sudeste 0 -- -- 71
2018-11-25 11:00:00 4.2 6 Sudeste 13 Sudeste 0 -- -- 86
2018-11-25 10:00:00 1.6 5 Sudeste 8 Sudeste 0 -- -- 97
2018-11-25 09:00:00 2.5 2 Sudeste 6 Sudeste 0 -- -- 96
2018-11-25 08:00:00 3.5 0 Calma 4 Sudoeste 0 -- -- 97
2018-11-25 07:00:00 4.3 0 Calma 7 Norte 0 -- -- 98
2018-11-25 06:00:00 4.9 4 Norte 10 Norte 0 -- -- 97
2018-11-25 05:00:00 5.2 5 Norte 12 Norte 0 -- -- 97
2018-11-25 04:00:00 5.6 3 Norte 9 Norte 0 -- -- 97
2018-11-25 03:00:00 5.9 8 Norte 13 Norte 0.2 -- -- 97
2018-11-25 02:00:00 6.1 0 Calma 9 Nordeste 1.2 -- -- 96
2018-11-25 01:00:00 6.3 7 Norte 20 Noroeste 1.4 -- -- 95
2018-11-25 00:00:00 7.3 6 Norte 14 Norte 1.2 -- -- 93
2018-11-24 23:00:00 8.5 2 Oeste 24 Sudeste 0 -- -- 83
2018-11-24 22:00:00 7.6 4 Este 20 Este 0.4 -- -- 86
2018-11-24 21:00:00 8.1 4 Este 33 Este 0.6 -- -- 83
2018-11-24 20:00:00 8.1 7 Sur 31 Nordeste 0.6 -- -- 73
2018-11-24 19:00:00 8.3 5 Este 28 Sur 1.2 -- -- 76
2018-11-24 18:00:00 9.7 9 Sudeste 31 Sudeste 0 -- -- 69
2018-11-24 17:00:00 9.9 8 Este 25 Este 0 -- -- 69
2018-11-24 16:00:00 10.4 8 Este 34 Sudeste 0 -- -- 62
2018-11-24 15:00:00 10.4 3 Norte 26 Sudeste 0 -- -- 63
2018-11-24 14:00:00 9.9 5 Sudeste 25 Sudeste 0 -- -- 67
2018-11-24 13:00:00 10.4 9 Sudeste 24 Sudeste 0 -- -- 62
2018-11-24 12:00:00 9.9 8 Este 24 Sur 0 -- -- 64
2018-11-24 11:00:00 9.5 9 Sudeste 26 Sudeste 0 -- -- 63
2018-11-24 10:00:00 7 3 Este 6 Sudeste 0 -- -- 81
2018-11-24 09:00:00 6 4 Sudeste 10 Sudeste 0 -- -- 84
2018-11-24 08:00:00 5.8 3 Sudeste 9 Sur 0 -- -- 83
2018-11-24 07:00:00 5.8 2 Sudeste 9 Este 0 -- -- 83
2018-11-24 06:00:00 5.6 5 Sudeste 9 Sudeste 0 -- -- 82
2018-11-24 05:00:00 5.5 0 Calma 8 Este 0 -- -- 85
2018-11-24 04:00:00 5.7 3 Sudeste 9 Este 0 -- -- 82
2018-11-24 03:00:00 5.6 4 Sudeste 7 Este 0 -- -- 83
2018-11-24 02:00:00 5.5 2 Nordeste 8 Este 0 -- -- 82
2018-11-24 01:00:00 5.8 2 Norte 9 Norte 0 -- -- 77
2018-11-24 00:00:00 4.4 3 Oeste 9 Sudoeste 0 -- -- 80
2018-11-23 23:00:00 5.1 0 Calma 20 Este 0 -- -- 78
2018-11-23 22:00:00 3.9 5 Sudeste 15 Sudeste 0 -- -- 84
2018-11-23 21:00:00 4.3 2 Sudeste 15 Sudeste 0 -- -- 83
2018-11-23 20:00:00 5.1 4 Sudeste 8 Sudeste 0 -- -- 81
2018-11-23 19:00:00 6.5 0 Calma 11 Sudeste 0 -- -- 75
2018-11-23 18:00:00 7.9 4 Sudeste 12 Este 0 -- -- 64
2018-11-23 17:00:00 8.5 0 Calma 10 Este 0 -- -- 72
2018-11-23 16:00:00 8.7 5 Norte 22 Noroeste 0 -- -- 63
2018-11-23 15:00:00 9 2 Sudeste 17 Sudeste 0 -- -- 59
2018-11-23 14:00:00 8.7 5 Nordeste 25 Nordeste 0 -- -- 56
2018-11-23 13:00:00 10 5 Nordeste 28 Sudeste 0 -- -- 55
2018-11-23 12:00:00 9.6 6 Este 19 Sudeste 0 -- -- 55
2018-11-23 11:00:00 7.2 5 Este 12 Sudeste 0 -- -- 71
2018-11-23 10:00:00 3.8 4 Sudeste 8 Sudeste 0 -- -- 91
2018-11-23 09:00:00 4.4 4 Este 14 Sudeste 0 -- -- 86
2018-11-23 08:00:00 4.2 4 Sudeste 13 Sudeste 0 -- -- 90
2018-11-23 07:00:00 4.3 3 Sudeste 10 Este 0 -- -- 90
2018-11-23 06:00:00 5.3 5 Sudeste 9 Sur 0 -- -- 86
2018-11-23 05:00:00 5.4 4 Sudeste 8 Este 0 -- -- 87
2018-11-23 04:00:00 5.1 5 Sudeste 9 Sudeste 0 -- -- 88
2018-11-23 03:00:00 5 0 Calma 8 Nordeste 0 -- -- 92
2018-11-23 02:00:00 5.5 0 Calma 14 Sudeste 0 -- -- 89
2018-11-23 01:00:00 5.4 4 Sudeste 9 Este 0 -- -- 92
2018-11-23 00:00:00 5.9 3 Este 12 Sudeste 0.2 -- -- 91
2018-11-22 23:00:00 6 4 Sudeste 12 Sur 0 -- -- 90
2018-11-22 22:00:00 5.7 4 Sudeste 10 Sur 0 -- -- 89
2018-11-22 21:00:00 6.3 2 Este 9 Noroeste 0 -- -- 90
2018-11-22 20:00:00 6.8 4 Norte 18 Este 0.2 -- -- 81
2018-11-22 19:00:00 6 3 Nordeste 10 Sudeste 0.2 -- -- 91
2018-11-22 18:00:00 7.2 4 Este 26 Sur 0.6 -- -- 85
2018-11-22 17:00:00 9.5 5 Sudeste 19 Sur 0 -- -- 61
2018-11-22 16:00:00 9.8 0 Calma 11 Sudoeste 0 -- -- 62
2018-11-22 15:00:00 8.6 3 Noroeste 25 Sur 0 -- -- 71
2018-11-22 14:00:00 8.5 8 Sudeste 26 Este 0 -- -- 65
2018-11-22 13:00:00 9.1 9 Sudeste 28 Sudeste 0 -- -- 60
2018-11-22 12:00:00 8.6 2 Norte 19 Sur 0 -- -- 62
2018-11-22 11:00:00 8.2 5 Sudeste 14 Sur 0 -- -- 67
2018-11-22 10:00:00 7.8 5 Sudeste 19 Sudeste 0 -- -- 65
2018-11-22 09:00:00 6.7 4 Este 24 Este 0 -- -- 75
2018-11-22 08:00:00 6.7 6 Este 22 Este 0 -- -- 74
2018-11-22 07:00:00 7.3 6 Este 25 Nordeste 0 -- -- 64
2018-11-22 06:00:00 7 6 Este 29 Sur 0 -- -- 68
2018-11-22 05:00:00 7 5 Este 31 Nordeste 0 -- -- 69
2018-11-22 04:00:00 6.5 7 Este 25 Sudeste 0 -- -- 68
2018-11-22 03:00:00 6.1 4 Sudoeste 26 Sur 0 -- -- 74
2018-11-22 02:00:00 5.6 0 Calma 12 Este 0 -- -- 85
2018-11-22 01:00:00 5.1 3 Sudeste 18 Sur 0 -- -- 89
2018-11-22 00:00:00 4.9 5 Sudeste 23 Sur 0 -- -- 89
2018-11-21 23:00:00 4.4 3 Oeste 10 Sudeste 0 -- -- 95
2018-11-21 22:00:00 4.8 5 Sudeste 12 Sudeste 0 -- -- 95
2018-11-21 21:00:00 5.7 2 Nordeste 7 Noroeste 0.4 -- -- 94
2018-11-21 20:00:00 6.2 6 Noroeste 17 Sur 0 -- -- 87
2018-11-21 19:00:00 5.7 4 Sudeste 7 Sudeste 0.2 -- -- 92
2018-11-21 18:00:00 7.4 4 Sudeste 15 Este 0.4 -- -- 81
2018-11-21 17:00:00 8.5 3 Este 18 Sudeste 0 -- -- 71
2018-11-21 16:00:00 9.5 6 Sudeste 19 Sur 0 -- -- 63
2018-11-21 15:00:00 9.5 3 Sur 25 Este 0 -- -- 61
2018-11-21 14:00:00 9.8 9 Sudeste 21 Este 0 -- -- 59
2018-11-21 13:00:00 10.6 7 Sudeste 22 Sudeste 0 -- -- 60
2018-11-21 12:00:00 9.6 7 Este 25 Nordeste 0 -- -- 59
2018-11-21 11:00:00 6.3 3 Sudeste 12 Sur 0 -- -- 87
2018-11-21 10:00:00 3.2 2 Sudeste 10 Sudeste 0 -- -- 96
2018-11-21 09:00:00 2.4 2 Norte 9 Sudeste 0 -- -- 97
2018-11-21 08:00:00 3.3 4 Sudeste 10 Sudeste 0 -- -- 96
2018-11-21 07:00:00 3.3 4 Nordeste 11 Sudeste 0 -- -- 97
2018-11-21 06:00:00 2.3 3 Sudeste 9 Sudeste 0 -- -- 100
2018-11-21 05:00:00 1.5 5 Sudeste 12 Sur 0 -- -- 100
2018-11-21 04:00:00 1.3 0 Calma 7 Sudeste 0 -- -- 99
2018-11-21 03:00:00 1.9 0 Calma 8 Sur 0 -- -- 98
2018-11-21 02:00:00 2.8 3 Sudeste 6 Noroeste 0 -- -- 99
2018-11-21 01:00:00 3.2 3 Sudeste 7 Sur 0 -- -- 100
2018-11-21 00:00:00 3.1 0 Calma 6 Sudeste 0 -- -- 99
2018-11-20 23:00:00 3.5 2 Sudeste 5 Sudeste 0 -- -- 99
2018-11-20 22:00:00 3.8 0 Calma 3 Sudeste 0 -- -- 98
2018-11-20 21:00:00 4.1 3 Este 6 Este 0 -- -- 97
2018-11-20 20:00:00 4 2 Nordeste 7 Norte 0 -- -- 98
2018-11-20 19:00:00 4.1 3 Norte 9 Norte 0 -- -- 98
2018-11-20 18:00:00 4.4 3 Norte 5 Noroeste 0 -- -- 97
2018-11-20 17:00:00 4.5 3 Norte 10 Norte 0 -- -- 98
2018-11-20 16:00:00 4.5 6 Noroeste 10 Noroeste 0.2 -- -- 98
2018-11-20 15:00:00 4.6 6 Norte 13 Noroeste 0 -- -- 98
2018-11-20 14:00:00 4.9 6 Norte 13 Noroeste 0 -- -- 98
2018-11-20 13:00:00 5.2 6 Noroeste 12 Noroeste 0.2 -- -- 98
2018-11-20 12:00:00 5.3 6 Norte 11 Noroeste 0.2 -- -- 98
2018-11-20 11:00:00 5.6 4 Noroeste 12 Norte 0.2 -- -- 97
2018-11-20 10:00:00 5.6 5 Norte 12 Noroeste 0.2 -- -- 99
2018-11-20 09:00:00 5.6 5 Norte 17 Noroeste 1.2 -- -- 99
2018-11-20 08:00:00 6 5 Norte 10 Norte 0.8 -- -- 99
2018-11-20 07:00:00 6.4 5 Norte 10 Norte 0 -- -- 99
2018-11-20 06:00:00 6.7 5 Norte 10 Norte 0 -- -- 99
2018-11-20 05:00:00 7 4 Norte 14 Noroeste 0.6 -- -- 99
2018-11-20 04:00:00 7.3 4 Norte 8 Nordeste 0.4 -- -- 99
2018-11-20 03:00:00 7.5 4 Norte 9 Noroeste 0.4 -- -- 98
2018-11-20 02:00:00 7.7 3 Norte 5 Noroeste 0 -- -- 98
2018-11-20 01:00:00 7.8 3 Norte 8 Norte 0.2 -- -- 97
2018-11-20 00:00:00 8 4 Norte 7 Norte 0 -- -- 96
2018-11-19 23:00:00 8.2 3 Norte 14 Norte 0 -- -- 95
2018-11-19 22:00:00 8.5 8 Norte 14 Norte 0 -- -- 94
2018-11-19 21:00:00 8.9 6 Norte 14 Noroeste 0 -- -- 91
2018-11-19 20:00:00 9.3 7 Norte 15 Norte 0 -- -- 89
2018-11-19 19:00:00 9.8 8 Norte 15 Norte 0 -- -- 87
2018-11-19 18:00:00 10.3 7 Norte 17 Norte 0 -- -- 85
2018-11-19 17:00:00 11.3 6 Norte 16 Noroeste 0 -- -- 76
2018-11-19 16:00:00 12.4 7 Norte 14 Noroeste 0 -- -- 70
2018-11-19 15:00:00 12.7 6 Noroeste 18 Noroeste 0 -- -- 67
2018-11-19 14:00:00 13.1 6 Noroeste 15 Noroeste 0 -- -- 64
2018-11-19 13:00:00 13.7 3 Noroeste 9 Sudeste 0 -- -- 60
2018-11-19 12:00:00 11.9 5 Sudeste 10 Sudeste 0 -- -- 70
2018-11-19 11:00:00 9.4 4 Este 12 Sudeste 0 -- -- 83
2018-11-19 10:00:00 5.4 2 Sudeste 9 Sudeste 0 -- -- 96
2018-11-19 09:00:00 5.4 0 Calma 6 Este 0 -- -- 93
2018-11-19 08:00:00 6.6 0 Calma 10 Este 0 -- -- 88
2018-11-19 07:00:00 9.4 4 Este 23 Sur 0 -- -- 76
2018-11-19 06:00:00 10 4 Sudeste 21 Sur 0 -- -- 74
2018-11-19 05:00:00 10.3 9 Sudeste 29 Sudeste 0 -- -- 72
2018-11-19 04:00:00 10 11 Sudeste 32 Este 0.2 -- -- 76
2018-11-19 03:00:00 7.2 0 Calma 7 Sur 0 -- -- 98
2018-11-19 02:00:00 6.8 0 Calma 7 Noroeste 0.2 -- -- 98
2018-11-19 01:00:00 7 3 Noroeste 13 Este 0.4 -- -- 96
2018-11-19 00:00:00 7.2 3 Este 5 Sudeste 0.4 -- -- 97
2018-11-18 23:00:00 7.3 0 Calma 5 Noroeste 0.6 -- -- 97
2018-11-18 22:00:00 7.4 2 Sudeste 7 Este 0.2 -- -- 96
2018-11-18 21:00:00 7.9 3 Sudeste 8 Este 0.8 -- -- 93
2018-11-18 20:00:00 8.2 0 Calma 6 Este 0.4 -- -- 96
2018-11-18 19:00:00 8.5 2 Sudeste 5 Sur 0 -- -- 96
2018-11-18 18:00:00 9 0 Calma 9 Sudeste 1.8 -- -- 93
2018-11-18 17:00:00 10.9 2 Norte 14 Noroeste 0.6 -- -- 87
2018-11-18 16:00:00 11.1 6 Norte 11 Norte 0 -- -- 82
2018-11-18 15:00:00 9.9 3 Sudeste 5 Sudeste 0 -- -- 82
2018-11-18 14:00:00 11.3 0 Calma 5 Noroeste 0 -- -- 75
2018-11-18 13:00:00 11.6 4 Noroeste 13 Noroeste 0 -- -- 71
2018-11-18 12:00:00 12 8 Norte 18 Norte 0 -- -- 70
2018-11-18 11:00:00 10.3 5 Sudeste 9 Sudeste 0 -- -- 76
2018-11-18 10:00:00 6.4 4 Sudeste 9 Sudeste 0 -- -- 93
2018-11-18 09:00:00 5.7 4 Sudeste 10 Sudeste 0 -- -- 91
2018-11-18 08:00:00 5.2 5 Sudeste 9 Sudeste 0 -- -- 93
2018-11-18 07:00:00 6.1 4 Sudeste 14 Sudeste 0 -- -- 89
2018-11-18 06:00:00 6.1 7 Sudeste 12 Sudeste 0 -- -- 90
2018-11-18 05:00:00 6.3 3 Sudeste 11 Sudeste 0 -- -- 90
2018-11-18 04:00:00 6.1 0 Calma 9 Sudeste 0 -- -- 92
2018-11-18 03:00:00 6.6 5 Sudeste 9 Sudeste 0 -- -- 92
2018-11-18 02:00:00 6.7 0 Calma 5 Sudeste 0 -- -- 91
2018-11-18 01:00:00 8.1 2 Nordeste 12 Noroeste 0 -- -- 85
2018-11-18 00:00:00 8.8 5 Norte 15 Sur 0 -- -- 83
2018-11-17 23:00:00 7.9 4 Norte 8 Noroeste 0 -- -- 89
2018-11-17 22:00:00 7.5 0 Calma 8 Sudeste 0 -- -- 90
2018-11-17 21:00:00 8.4 5 Sudeste 10 Sudeste 0 -- -- 85
2018-11-17 20:00:00 8.7 4 Sudeste 12 Sudeste 0 -- -- 84
2018-11-17 19:00:00 9.2 2 Sudeste 7 Sudeste 0 -- -- 83
2018-11-17 18:00:00 11.3 0 Calma 5 Nordeste 0 -- -- 75
2018-11-17 17:00:00 14.7 3 Sudeste 14 Sudeste 0 -- -- 64
2018-11-17 16:00:00 15.6 3 Sur 12 Sudeste 0 -- -- 60
2018-11-17 15:00:00 15.7 3 Sudeste 15 Sudeste 0 -- -- 58
2018-11-17 14:00:00 15.4 3 Sur 17 Este 0 -- -- 58
2018-11-17 13:00:00 14.8 6 Este 24 Sur 0 -- -- 61
2018-11-17 12:00:00 14.9 6 Sudeste 29 Este 0 -- -- 61
2018-11-17 11:00:00 14.5 6 Sudeste 15 Este 0 -- -- 63
2018-11-17 10:00:00 13.7 4 Norte 21 Sudeste 0 -- -- 66
2018-11-17 09:00:00 12.8 6 Sur 24 Sur 0 -- -- 68
2018-11-17 08:00:00 11.8 3 Norte 9 Sur 0 -- -- 77
2018-11-17 07:00:00 11.9 2 Este 7 Norte 0 -- -- 75
2018-11-17 06:00:00 13.2 3 Noroeste 14 Nordeste 0 -- -- 67
2018-11-17 05:00:00 13.3 2 Noroeste 18 Sur 0 -- -- 68
2018-11-17 04:00:00 13.1 5 Sudoeste 18 Sur 0 -- -- 69
2018-11-17 03:00:00 12.6 2 Sur 12 Sur 0 -- -- 71
2018-11-17 02:00:00 13.1 3 Noroeste 19 Sur 0 -- -- 68
2018-11-17 01:00:00 14 2 Noroeste 21 Sur 0 -- -- 67
2018-11-17 00:00:00 13.3 6 Oeste 22 Este 0 -- -- 67
2018-11-16 23:00:00 12.7 3 Noroeste 10 Noroeste 0 -- -- 70
2018-11-16 22:00:00 13.2 3 Nordeste 18 Este 0 -- -- 69
2018-11-16 21:00:00 11.9 0 Calma 15 Noroeste 0 -- -- 79
2018-11-16 20:00:00 11.8 3 Norte 9 Sudoeste 0 -- -- 77
2018-11-16 19:00:00 11.9 4 Sudeste 16 Sur 0 -- -- 75
2018-11-16 18:00:00 12.8 0 Calma 5 Sudoeste 0 -- -- 75
2018-11-16 17:00:00 14.9 3 Sudeste 12 Sur 0 -- -- 63
2018-11-16 16:00:00 15.3 3 Sudoeste 15 Sur 0 -- -- 61
2018-11-16 15:00:00 16.2 4 Oeste 17 Sudeste 0 -- -- 59
2018-11-16 14:00:00 17 4 Oeste 24 Sudeste 0 -- -- 55
2018-11-16 13:00:00 17.5 5 Este 22 Sudeste 0 -- -- 57
2018-11-16 12:00:00 16.5 8 Sudeste 32 Sudeste 0 -- -- 58
2018-11-16 11:00:00 14.9 11 Sudeste 24 Sudeste 0 -- -- 64
2018-11-16 10:00:00 8.3 2 Sudeste 5 Sudeste 0 -- -- 91
2018-11-16 09:00:00 8 4 Noroeste 13 Norte 0 -- -- 89
2018-11-16 08:00:00 9.1 2 Norte 29 Sur 0 -- -- 82
2018-11-16 07:00:00 10.9 7 Sur 20 Sudeste 0 -- -- 76
2018-11-16 06:00:00 9.4 4 Norte 14 Norte 0 -- -- 82
2018-11-16 05:00:00 13.1 6 Sudeste 30 Sur 0 -- -- 67
2018-11-16 04:00:00 13.5 9 Sudeste 27 Sudeste 0 -- -- 66
2018-11-16 03:00:00 10.2 4 Noroeste 21 Sur 0 -- -- 81
2018-11-16 02:00:00 8.7 3 Nordeste 8 Noroeste 0 -- -- 89
2018-11-16 01:00:00 7.4 2 Sudeste 12 Sudeste 0 -- -- 92
2018-11-16 00:00:00 6.9 2 Sudoeste 10 Sudeste 0 -- -- 93
2018-11-15 23:00:00 7.1 7 Sudeste 10 Sudeste 0 -- -- 92
2018-11-15 22:00:00 7.4 2 Sudeste 9 Sudeste 0 -- -- 90
2018-11-15 21:00:00 8.3 6 Sudeste 11 Sudeste 0 -- -- 87
2018-11-15 20:00:00 8.9 6 Sudeste 10 Sudeste 0 -- -- 86
2018-11-15 19:00:00 10 5 Sudeste 10 Sudeste 0 -- -- 83
2018-11-15 18:00:00 13 3 Sudeste 8 Sudeste 0 -- -- 73
2018-11-15 17:00:00 15 4 Sudeste 12 Sudeste 0 -- -- 68
2018-11-15 16:00:00 15.5 3 Sudeste 10 Sudeste 0 -- -- 61
2018-11-15 15:00:00 16.2 6 Sur 16 Sur 0 -- -- 58
2018-11-15 14:00:00 17.1 8 Sur 26 Sur 0 -- -- 54
2018-11-15 13:00:00 17.1 7 Sudeste 19 Sur 0 -- -- 56
2018-11-15 12:00:00 18.5 8 Sudeste 31 Sudeste 0 -- -- 55
2018-11-15 11:00:00 17.2 13 Sudeste 34 Sudeste 0 -- -- 55
2018-11-15 10:00:00 12.6 5 Sur 16 Sur 0 -- -- 73
2018-11-15 09:00:00 10.7 3 Sudeste 13 Este 0 -- -- 80
2018-11-15 08:00:00 11.5 4 Sudeste 27 Sudeste 0 -- -- 76
2018-11-15 07:00:00 8.5 5 Sudeste 10 Sudeste 0 -- -- 90
2018-11-15 06:00:00 10.3 3 Sudeste 17 Este 0 -- -- 83
2018-11-15 05:00:00 11.1 6 Este 15 Este 0 -- -- 81
2018-11-15 04:00:00 10.2 3 Norte 7 Noroeste 0 -- -- 87
2018-11-15 03:00:00 10.3 0 Calma 7 Noroeste 0 -- -- 86
2018-11-15 02:00:00 10 0 Calma 13 Oeste 0 -- -- 86
2018-11-15 01:00:00 9.2 0 Calma 9 Sudeste 0 -- -- 91
2018-11-15 00:00:00 8.7 0 Calma 12 Sudeste 0 -- -- 90
2018-11-14 23:00:00 8.3 3 Sur 10 Sudeste 0 -- -- 91
2018-11-14 22:00:00 8.5 0 Calma 6 Sur 0 -- -- 90
2018-11-14 21:00:00 9.5 0 Calma 16 Nordeste 0 -- -- 82
2018-11-14 20:00:00 9.6 0 Calma 7 Norte 0 -- -- 83
2018-11-14 19:00:00 11.7 2 Nordeste 21 Sudeste 0 -- -- 74
2018-11-14 18:00:00 11.5 7 Sudeste 16 Sudeste 0 -- -- 74
2018-11-14 17:00:00 12.1 8 Sudeste 16 Sudeste 0 -- -- 74
2018-11-14 16:00:00 13.2 6 Sudeste 13 Sudeste 0 -- -- 69
2018-11-14 15:00:00 15.8 4 Sudeste 16 Este 0 -- -- 59
2018-11-14 14:00:00 18.1 3 Sudoeste 17 Sur 0 -- -- 48
2018-11-14 13:00:00 19.6 6 Sur 19 Sur 0 -- -- 46
2018-11-14 12:00:00 19.1 5 Sudeste 21 Sur 0 -- -- 45
2018-11-14 11:00:00 15.4 6 Este 14 Sudeste 0 -- -- 60
2018-11-14 10:00:00 8 3 Sudeste 8 Sudeste 0 -- -- 90
2018-11-14 09:00:00 6.5 0 Calma 7 Sudeste 0 -- -- 93
2018-11-14 08:00:00 6.6 0 Calma 5 Sur 0 -- -- 92
2018-11-14 07:00:00 8.9 2 Nordeste 19 Sur 0 -- -- 82
2018-11-14 06:00:00 13.3 12 Este 26 Sudeste 0 -- -- 63
2018-11-14 05:00:00 12.7 9 Sudeste 27 Sudeste 0 -- -- 65
2018-11-14 04:00:00 11.1 7 Sudeste 20 Sur 0 -- -- 71
2018-11-14 03:00:00 6.9 0 Calma 8 Noroeste 0 -- -- 92
2018-11-14 02:00:00 7 3 Este 8 Este 0 -- -- 91
2018-11-14 01:00:00 9.5 3 Este 15 Sudeste 0 -- -- 81
2018-11-14 00:00:00 7.7 5 Sudeste 10 Sudeste 0 -- -- 89
2018-11-13 23:00:00 8.8 6 Sudeste 15 Sudeste 0 -- -- 85
2018-11-13 22:00:00 9.4 4 Sudeste 14 Este 0 -- -- 84
2018-11-13 21:00:00 7.2 4 Sudeste 12 Sudeste 0 -- -- 93
2018-11-13 20:00:00 7.2 6 Sudeste 13 Sudeste 0 -- -- 94
2018-11-13 19:00:00 7.1 2 Sudeste 11 Sur 0 -- -- 94
2018-11-13 18:00:00 8.1 4 Sudeste 10 Sudeste 0 -- -- 92
2018-11-13 17:00:00 9.5 0 Calma 5 Sudeste 0 -- -- 88
2018-11-13 16:00:00 10.5 0 Calma 6 Sudeste 0 -- -- 82
2018-11-13 15:00:00 10.1 0 Calma 12 Noroeste 0 -- -- 82
2018-11-13 14:00:00 12.2 2 Sudoeste 8 Noroeste 0 -- -- 68
2018-11-13 13:00:00 12 4 Noroeste 11 Noroeste 0 -- -- 64
2018-11-13 12:00:00 10.5 4 Noroeste 9 Noroeste 0 -- -- 66
2018-11-13 11:00:00 7.9 3 Noroeste 6 Nordeste 0 -- -- 83
2018-11-13 10:00:00 2.6 2 Nordeste 8 Este 0 -- -- 100
2018-11-13 09:00:00 1.3 3 Sudeste 13 Sudeste 0 -- -- 99
2018-11-13 08:00:00 1 5 Sudeste 13 Sudeste 0 -- -- 99
2018-11-13 07:00:00 1.2 4 Sudeste 9 Sudeste 0 -- -- 99
2018-11-13 06:00:00 1.6 4 Sudeste 9 Este 0 -- -- 99
2018-11-13 05:00:00 1.9 5 Sudeste 9 Sudeste 0 -- -- 99
2018-11-13 04:00:00 2.5 5 Sudeste 9 Sudeste 0 -- -- 98
2018-11-13 03:00:00 3.2 3 Sudeste 9 Sudeste 0 -- -- 98
2018-11-13 02:00:00 4.3 5 Sudeste 9 Sudeste 0 -- -- 98
2018-11-13 01:00:00 5.8 3 Sudeste 6 Sudeste 0 -- -- 98
2018-11-13 00:00:00 7 3 Sudeste 4 Sudeste 0 -- -- 98
2018-11-12 23:00:00 7.2 0 Calma 2 Sudeste 0 -- -- 98
2018-11-12 22:00:00 7.1 0 Calma 3 Sudeste 0 -- -- 97
2018-11-12 21:00:00 7.5 0 Calma 4 Sudeste 0 -- -- 97
2018-11-12 20:00:00 7.7 0 Calma 3 Sudeste 0 -- -- 95
2018-11-12 19:00:00 8.2 0 Calma 6 Norte 0 -- -- 94
2018-11-12 18:00:00 9.3 2 Norte 8 Norte 0 -- -- 88
2018-11-12 17:00:00 9.8 3 Norte 11 Norte 0 -- -- 84
2018-11-12 16:00:00 10 0 Calma 10 Norte 0 -- -- 84
2018-11-12 15:00:00 10.9 6 Noroeste 16 Noroeste 0 -- -- 77
2018-11-12 14:00:00 11.3 5 Noroeste 10 Noroeste 0 -- -- 76
2018-11-12 13:00:00 11.4 3 Noroeste 6 Noroeste 0 -- -- 71
2018-11-12 12:00:00 11.4 2 Oeste 5 Sur 0 -- -- 73
2018-11-12 11:00:00 8.7 0 Calma 4 Noroeste 0 -- -- 91
2018-11-12 10:00:00 7.3 0 Calma 3 Noroeste 0 -- -- 99
2018-11-12 09:00:00 6.6 0 Calma 3 Noroeste 0 -- -- 100
2018-11-12 08:00:00 6.4 0 Calma 4 Sudeste 0 -- -- 100
2018-11-12 07:00:00 6.3 3 Sudeste 5 Sudeste 0 -- -- 100
2018-11-12 06:00:00 6.4 3 Norte 8 Noroeste 0 -- -- 100
2018-11-12 05:00:00 6.6 0 Calma 7 Sudeste 0 -- -- 99
2018-11-12 04:00:00 6.8 0 Calma 3 Norte 0 -- -- 100
2018-11-12 03:00:00 6.9 3 Noroeste 8 Sudeste 0.2 -- -- 98
2018-11-12 02:00:00 7.2 0 Calma 13 Norte 0.4 -- -- 100
2018-11-12 01:00:00 7.3 4 Norte 10 Norte 0.4 -- -- 100
2018-11-12 00:00:00 7.3 0 Calma 5 Norte 1 -- -- 99
2018-11-11 23:00:00 7.5 5 Norte 8 Norte 1.4 -- -- 99
2018-11-11 22:00:00 7.6 0 Calma 4 Noroeste 0.2 -- -- 99
2018-11-11 21:00:00 7.8 0 Calma 6 Nordeste 1 -- -- 98
2018-11-11 20:00:00 7.8 3 Norte 7 Norte 1.2 -- -- 98
2018-11-11 19:00:00 8.3 3 Este 8 Sudeste 1.6 -- -- 97
2018-11-11 18:00:00 8.8 0 Calma 4 Este 2 -- -- 96
2018-11-11 17:00:00 9.4 2 Este 7 Este 1.2 -- -- 94
2018-11-11 16:00:00 10.1 3 Sudeste 9 Sudeste 1 -- -- 93
2018-11-11 15:00:00 10.7 4 Sur 11 Sudeste 0.6 -- -- 89
2018-11-11 14:00:00 11.9 5 Sudeste 9 Sudeste 3 -- -- 88
2018-11-11 13:00:00 14.4 0 Calma 13 Sur 0 -- -- 76
2018-11-11 12:00:00 15 4 Sudeste 20 Sur 0 -- -- 64
2018-11-11 11:00:00 14.7 4 Sudeste 13 Sur 0 -- -- 63
2018-11-11 10:00:00 12.4 5 Este 26 Este 0.2 -- -- 71
2018-11-11 09:00:00 8.9 4 Nordeste 9 Este 0 -- -- 90
2018-11-11 08:00:00 11 0 Calma 28 Este 0 -- -- 85
2018-11-11 07:00:00 12.3 8 Este 23 Sudeste 0 -- -- 65
2018-11-11 06:00:00 13.1 12 Este 30 Sudeste 0 -- -- 64
2018-11-11 05:00:00 12.9 12 Este 39 Sudeste 0 -- -- 66
2018-11-11 04:00:00 11.7 4 Sudeste 23 Nordeste 0 -- -- 70
2018-11-11 03:00:00 9.7 3 Este 10 Sur 0 -- -- 80
2018-11-11 02:00:00 10.3 3 Norte 11 Sur 0 -- -- 76
2018-11-11 01:00:00 10.5 3 Oeste 8 Noroeste 0 -- -- 75
2018-11-11 00:00:00 10.5 4 Sudeste 14 Sur 0 -- -- 73
2018-11-10 23:00:00 10.3 4 Sudeste 20 Este 0 -- -- 75
2018-11-10 22:00:00 11 4 Sudeste 19 Norte 0 -- -- 72
2018-11-10 21:00:00 11 3 Sudoeste 18 Sur 0 -- -- 67
2018-11-10 20:00:00 9.5 5 Sudeste 12 Sudeste 0 -- -- 68
2018-11-10 19:00:00 9.6 5 Sudeste 17 Sudeste 0 -- -- 68
2018-11-10 18:00:00 11.1 4 Sudeste 18 Este 0 -- -- 63
2018-11-10 17:00:00 13.1 4 Sudeste 14 Sudeste 0 -- -- 66
2018-11-10 16:00:00 13.9 3 Sudeste 18 Sudeste 0 -- -- 72
2018-11-10 15:00:00 14.1 7 Este 20 Este 0 -- -- 60
2018-11-10 14:00:00 14.2 2 Este 17 Sudeste 0 -- -- 70
2018-11-10 13:00:00 15 10 Este 28 Este 0.2 -- -- 55
2018-11-10 12:00:00 14.1 12 Este 27 Este 0 -- -- 51
2018-11-10 11:00:00 15.4 9 Este 42 Sur 0 -- -- 44
2018-11-10 10:00:00 11.7 6 Este 20 Este 0 -- -- 51
2018-11-10 09:00:00 9.1 3 Sudeste 45 Noroeste 0 -- -- 80
2018-11-10 08:00:00 11.4 8 Norte 23 Nordeste 0 -- -- 76
2018-11-10 07:00:00 10.4 5 Sudeste 15 Este 0.2 -- -- 96
2018-11-10 06:00:00 10.3 3 Sudeste 12 Este 0.4 -- -- 95
2018-11-10 05:00:00 10.5 3 Sudeste 10 Este 0.2 -- -- 94
2018-11-10 04:00:00 10.2 3 Norte 6 Noroeste 0.2 -- -- 92
2018-11-10 03:00:00 12 3 Norte 33 Nordeste 0 -- -- 81
2018-11-10 02:00:00 13.8 6 Este 27 Este 0 -- -- 67
2018-11-10 01:00:00 13.1 5 Sudeste 37 Sudeste 0 -- -- 72
2018-11-10 00:00:00 14.1 10 Sudeste 38 Nordeste 0 -- -- 63
2018-11-09 23:00:00 14.3 10 Norte 41 Este 0 -- -- 60
2018-11-09 22:00:00 14.1 6 Nordeste 35 Sudeste 0 -- -- 61
2018-11-09 21:00:00 12.3 12 Sudeste 31 Sudeste 0 -- -- 67
2018-11-09 20:00:00 11.8 5 Sudeste 34 Sudeste 0 -- -- 68
2018-11-09 19:00:00 11.9 9 Sudeste 26 Este 0 -- -- 66
2018-11-09 18:00:00 11.8 9 Sudeste 27 Sur 0 -- -- 65
2018-11-09 17:00:00 12 13 Este 31 Este 0 -- -- 62
2018-11-09 16:00:00 11.7 10 Sudeste 43 Sur 0 -- -- 62
2018-11-09 15:00:00 10.2 2 Norte 15 Sur 0.6 -- -- 84
2018-11-09 14:00:00 12 11 Sudeste 33 Sur 0 -- -- 62
2018-11-09 13:00:00 13.2 9 Sur 24 Sur 0 -- -- 52
2018-11-09 12:00:00 12.1 3 Sudoeste 29 Sudeste 0 -- -- 43
2018-11-09 11:00:00 10.7 8 Sur 25 Este 0 -- -- 49
2018-11-09 10:00:00 7.9 8 Sudeste 31 Sudeste 0 -- -- 61
2018-11-09 09:00:00 1.2 3 Sudeste 9 Noroeste 0 -- -- 95
2018-11-09 08:00:00 2.3 6 Este 13 Este 0 -- -- 88
2018-11-09 07:00:00 1.9 4 Sudeste 9 Sudeste 0 -- -- 96
2018-11-09 06:00:00 2.4 5 Este 10 Sudeste 0 -- -- 97
2018-11-09 05:00:00 3.1 5 Sudeste 10 Sudeste 0 -- -- 97
2018-11-09 04:00:00 4.6 0 Calma 7 Nordeste 0 -- -- 95
2018-11-09 03:00:00 5.3 5 Sudeste 9 Sudeste 0.2 -- -- 96
2018-11-09 02:00:00 5.1 3 Sudeste 10 Noroeste 0 -- -- 95
2018-11-09 01:00:00 4.9 2 Este 7 Sudeste 0 -- -- 90
2018-11-09 00:00:00 4.5 0 Calma 13 Sudeste 0 -- -- 89